Kirensk, Russia
Current Conditions -  °F | °C
As of 10:30 AM on Saturday 25 Oct 2014 (Local Time) from UIBB Reporting Station
Broken Clouds Broken Clouds  
Wind Chill:   Ceiling: 400
Heat Index:   Visibility: 4mi
Dew Point:   Wind: 2mph
Humidity: 85%   Direction: 120°ESE
Pressure: 30.39"   Gusts: NA
Location:  57.79°N, 108.11°E
Report Text: UIBB 250230Z 12001MPS 6000 BKN004 M13/M15 Q1029 NOSIG RMKQBB120 QFE728/0971 30850540
Loading
Personal Weather Stations






























Interactive Weather Map
Tropical Storm Tracking
New forecast layout! Learn more

10-Day Weather Forecast

Advertisements
Track Severe Weather on mobile